Time;durP1;ratioP1;P1;durP2;ratioP2;P2;SDS_P1;SDS_P2;PMS_P1;PMS_P2;Temp;Humidity;BMP_temperature;BMP_pressure;BME280_temperature;BME280_humidity;BME280_pressure;Samples;Min_cycle;Max_cycle;Signal;HPM_P1;HPM_P2
2023/02/11 00:00:23;;;;;;;6.70;5.37;;;-3.80;99.90;-3.90;98568.00;;;;5065136;28;20423;-69
2023/02/11 00:03:12;;;;;;;8.63;5.63;;;-4.50;99.90;-4.00;98581.00;;;;5070168;28;20465;-70
2023/02/11 00:06:03;;;;;;;10.60;6.77;;;-4.20;99.90;-4.20;98570.00;;;;5069404;28;21244;-71
2023/02/11 00:08:53;;;;;;;6.97;5.87;;;-4.10;99.90;-4.40;98566.00;;;;5070506;28;20471;-71
2023/02/11 00:11:42;;;;;;;7.40;4.57;;;-4.30;99.90;-4.30;98559.00;;;;5062898;28;20784;-70
2023/02/11 00:14:31;;;;;;;11.23;6.03;;;-4.30;99.90;-4.30;98561.00;;;;5070118;28;20465;-70
2023/02/11 00:17:19;;;;;;;8.23;5.53;;;-4.80;99.90;-4.00;98563.00;;;;5066949;28;20505;-71
2023/02/11 00:20:09;;;;;;;3.20;2.90;;;-5.00;99.90;-4.30;98552.00;;;;5071321;28;20415;-70
2023/02/11 00:22:58;;;;;;;5.63;5.00;;;-4.70;99.90;-4.30;98553.00;;;;5070060;28;20474;-70
2023/02/11 00:25:48;;;;;;;11.13;6.70;;;-4.20;99.90;-5.00;98545.00;;;;5070613;28;20437;-70
2023/02/11 00:28:37;;;;;;;5.00;4.50;;;-4.60;99.90;-4.60;98547.00;;;;5068305;28;20870;-70
2023/02/11 00:31:27;;;;;;;11.80;4.93;;;-4.50;99.90;-4.30;98555.00;;;;5070274;28;20443;-71
2023/02/11 00:34:15;;;;;;;7.20;5.03;;;-4.10;99.90;-4.20;98560.00;;;;5067937;28;20484;-69
2023/02/11 00:37:05;;;;;;;9.20;5.20;;;-4.80;99.90;-4.00;98563.00;;;;5068103;28;20434;-69
2023/02/11 00:39:54;;;;;;;3.93;3.70;;;-4.40;99.90;-4.20;98559.00;;;;5069381;28;20427;-70
2023/02/11 00:42:44;;;;;;;3.93;3.60;;;-4.90;99.90;-4.40;98547.00;;;;5070466;28;20480;-68
2023/02/11 00:45:32;;;;;;;7.40;5.93;;;-4.70;99.90;-4.40;98549.00;;;;5069316;28;20437;-72
2023/02/11 00:48:21;;;;;;;5.07;4.57;;;-4.50;99.90;-4.10;98557.00;;;;5064718;28;20509;-72
2023/02/11 00:51:10;;;;;;;6.77;4.77;;;-4.20;99.90;-4.20;98546.00;;;;5065359;28;20846;-72
2023/02/11 00:53:59;;;;;;;10.40;5.93;;;-5.00;99.90;-4.10;98535.00;;;;5063415;28;20439;-71
2023/02/11 00:56:47;;;;;;;4.27;3.90;;;-4.90;99.90;-4.60;98534.00;;;;5061758;28;20453;-72
2023/02/11 00:59:38;;;;;;;3.43;3.13;;;-4.70;99.90;-4.60;98526.00;;;;5067693;28;20435;-72
2023/02/11 01:02:26;;;;;;;7.90;5.07;;;-5.00;99.90;-4.40;98522.00;;;;5068644;28;20453;-71
2023/02/11 01:05:15;;;;;;;5.30;4.13;;;-5.00;99.90;-4.50;98522.00;;;;5069852;28;20419;-70
2023/02/11 01:08:04;;;;;;;5.23;4.30;;;-5.10;99.90;-4.60;98505.00;;;;5067563;28;20427;-72
2023/02/11 01:10:58;;;;;;;8.13;4.93;;;-5.10;99.90;-4.60;98506.00;;;;5068207;28;20872;-70
2023/02/11 01:13:47;;;;;;;5.37;4.60;;;-4.20;99.90;-4.50;98497.00;;;;5069457;28;21324;-70
2023/02/11 01:16:38;;;;;;;5.97;4.60;;;-4.80;99.90;-4.60;98497.00;;;;5067321;28;20435;-70
2023/02/11 01:19:26;;;;;;;7.27;5.10;;;-4.80;99.90;-4.70;98493.00;;;;5067346;28;20454;-70
2023/02/11 01:22:15;;;;;;;5.47;3.43;;;-5.10;99.90;-5.00;98487.00;;;;5067839;28;20447;-70
2023/02/11 01:25:04;;;;;;;5.73;3.77;;;-5.40;99.90;-4.90;98482.00;;;;5069416;28;20441;-70
2023/02/11 01:27:53;;;;;;;2.60;2.47;;;-5.30;99.90;-5.10;98481.00;;;;5068860;28;21176;-69
2023/02/11 01:30:42;;;;;;;3.20;3.00;;;-5.30;99.90;-5.00;98480.00;;;;5068077;28;20469;-69
2023/02/11 01:33:32;;;;;;;3.77;3.40;;;-4.70;99.90;-5.00;98472.00;;;;5068852;28;20451;-71
2023/02/11 01:36:20;;;;;;;5.13;4.37;;;-5.30;99.90;-4.90;98469.00;;;;5067176;28;20423;-71
2023/02/11 01:39:09;;;;;;;3.70;3.13;;;-5.20;99.90;-4.70;98472.00;;;;5063568;28;20445;-71
2023/02/11 01:41:58;;;;;;;7.60;5.03;;;-4.70;99.90;-4.60;98459.00;;;;5067804;28;20442;-70
2023/02/11 01:44:51;;;;;;;6.10;4.73;;;-5.20;99.90;-4.80;98476.00;;;;5059444;28;20423;-70
2023/02/11 01:47:40;;;;;;;3.70;3.10;;;-5.20;99.90;-5.00;98463.00;;;;5066560;28;20427;-71
2023/02/11 01:50:30;;;;;;;4.03;3.30;;;-5.40;99.90;-5.00;98457.00;;;;5063448;28;20500;-71
2023/02/11 01:59:40;;;;;;;7.60;4.03;;;-4.70;99.90;-5.00;98456.00;;;;5068904;28;20484;-71
2023/02/11 02:02:39;;;;;;;4.60;3.83;;;-5.50;99.90;-4.70;98455.00;;;;5068528;28;20572;-70
2023/02/11 02:05:36;;;;;;;7.47;3.43;;;-4.80;99.90;-4.60;98460.00;;;;5068689;28;20430;-71
2023/02/11 02:08:30;;;;;;;2.53;2.37;;;-5.30;99.90;-5.50;98449.00;;;;5068476;28;20598;-73
2023/02/11 02:11:19;;;;;;;5.33;4.93;;;-5.40;99.90;-5.40;98449.00;;;;5067591;28;20422;-70
2023/02/11 02:14:08;;;;;;;6.57;4.30;;;-5.70;99.90;-5.20;98452.00;;;;5066587;28;20459;-70
2023/02/11 02:16:57;;;;;;;5.27;4.70;;;-5.70;99.90;-5.40;98445.00;;;;5064413;28;20426;-72
2023/02/11 02:20:27;;;;;;;3.97;3.00;;;-5.70;99.90;-5.40;98434.00;;;;5064892;28;20823;-72
2023/02/11 02:23:48;;;;;;;7.57;4.87;;;-5.50;99.90;-5.00;98438.00;;;;5038623;28;20492;-71
2023/02/11 02:27:19;;;;;;;5.57;5.07;;;-5.50;99.90;-5.20;98437.00;;;;5060612;28;20454;-70
2023/02/11 02:30:48;;;;;;;1.35;1.25;;;-5.40;99.90;-6.00;98427.00;;;;5063916;28;20488;-73
2023/02/11 02:33:53;;;;;;;5.90;4.00;;;-5.80;99.90;-5.80;98421.00;;;;5066637;28;20709;-70
2023/02/11 02:36:47;;;;;;;3.83;3.40;;;-5.90;99.90;-5.70;98413.00;;;;5066819;28;20511;-68
2023/02/11 02:39:37;;;;;;;2.35;1.73;;;-6.10;99.90;-5.80;98410.00;;;;5067318;28;20211;-68
2023/02/11 02:42:26;;;;;;;3.70;2.53;;;-6.20;99.90;-5.70;98410.00;;;;5067842;28;20219;-70
2023/02/11 02:45:16;;;;;;;3.65;1.98;;;-5.90;99.90;-5.50;98413.00;;;;5068398;28;20400;-72
2023/02/11 02:48:05;;;;;;;4.90;4.47;;;-6.10;99.90;-5.50;98413.00;;;;5067708;28;20625;-70
2023/02/11 02:51:09;;;;;;;5.55;4.72;;;-5.60;99.90;-5.00;98413.00;;;;5065910;28;21074;-71
2023/02/11 02:54:22;;;;;;;5.03;4.35;;;-6.10;99.90;-5.20;98414.00;;;;5066653;28;20588;-70
2023/02/11 02:57:27;;;;;;;6.30;3.35;;;-4.80;99.90;-5.60;98398.00;;;;5067808;28;20196;-70
2023/02/11 03:00:24;;;;;;;7.13;4.85;;;-6.00;99.90;-5.50;98403.00;;;;5068671;28;20237;-71
2023/02/11 03:03:30;;;;;;;3.20;2.50;;;-5.90;99.90;-5.50;98393.00;;;;5062195;28;20714;-72
2023/02/11 03:06:30;;;;;;;6.75;4.32;;;-6.00;99.90;-5.00;98400.00;;;;5066023;28;20457;-71
2023/02/11 03:09:25;;;;;;;2.73;2.43;;;-5.70;99.90;-5.40;98403.00;;;;5063388;28;20196;-72
2023/02/11 03:12:16;;;;;;;5.60;2.90;;;-5.90;99.90;-5.60;98390.00;;;;5065230;28;20920;-70
2023/02/11 03:15:07;;;;;;;4.90;4.37;;;-5.50;99.90;-5.70;98392.00;;;;5071813;28;21014;-71
2023/02/11 03:18:00;;;;;;;2.27;1.93;;;-5.70;99.90;-5.90;98396.00;;;;5063375;28;20438;-70
2023/02/11 03:20:53;;;;;;;3.25;2.88;;;-5.50;99.90;-6.20;98387.00;;;;5070340;28;20422;-69
2023/02/11 03:23:50;;;;;;;4.63;2.77;;;-6.00;99.90;-5.90;98396.00;;;;5071370;28;20228;-72
2023/02/11 03:26:44;;;;;;;4.07;2.45;;;-6.20;99.90;-6.10;98372.00;;;;5071089;28;20434;-69
2023/02/11 03:29:40;;;;;;;2.75;2.58;;;-6.10;99.90;-5.80;98371.00;;;;5064504;28;20235;-69
2023/02/11 03:32:33;;;;;;;3.80;2.90;;;-6.20;99.90;-5.60;98381.00;;;;5068617;28;20232;-71
2023/02/11 03:35:26;;;;;;;2.88;1.50;;;-5.90;99.90;-6.00;98385.00;;;;5072188;28;20481;-73
2023/02/11 03:38:20;;;;;;;3.90;3.53;;;-5.90;99.90;-5.90;98371.00;;;;5067113;28;20252;-71
2023/02/11 03:41:13;;;;;;;3.38;2.28;;;-6.20;99.90;-5.70;98364.00;;;;5070425;28;20203;-70
2023/02/11 03:44:04;;;;;;;3.38;2.40;;;-6.00;99.90;-5.70;98360.00;;;;5071894;28;20683;-70
2023/02/11 03:46:54;;;;;;;4.20;1.83;;;-5.90;99.90;-5.90;98357.00;;;;5064916;28;20212;-71
2023/02/11 03:49:45;;;;;;;2.38;2.28;;;-6.20;99.90;-5.80;98357.00;;;;5070384;28;20427;-70
2023/02/11 03:52:35;;;;;;;4.03;3.40;;;-6.10;99.90;-5.80;98354.00;;;;5062637;28;20248;-71
2023/02/11 03:55:25;;;;;;;3.57;2.87;;;-6.30;99.90;-6.00;98356.00;;;;5064004;28;20431;-73
2023/02/11 03:58:16;;;;;;;2.72;2.33;;;-5.80;99.90;-5.50;98363.00;;;;5059857;28;20446;-73
2023/02/11 04:01:08;;;;;;;9.18;3.65;;;-6.20;99.90;-5.20;98359.00;;;;5070576;28;20223;-72
2023/02/11 04:03:57;;;;;;;3.87;3.43;;;-5.50;99.90;-5.30;98355.00;;;;5070840;28;20569;-71
2023/02/11 04:06:46;;;;;;;4.20;3.80;;;-6.00;99.90;-5.90;98344.00;;;;5071272;28;20433;-72
2023/02/11 04:09:35;;;;;;;4.73;4.30;;;-6.10;99.90;-5.90;98341.00;;;;5066644;28;20438;-72
2023/02/11 04:12:24;;;;;;;1.90;1.80;;;-6.00;99.90;-5.80;98344.00;;;;5069426;28;20974;-72
2023/02/11 04:15:14;;;;;;;3.63;3.33;;;-6.40;99.90;-6.40;98333.00;;;;5070028;28;20446;-73
2023/02/11 04:18:03;;;;;;;2.60;1.52;;;-5.20;99.90;-6.50;98342.00;;;;5063813;28;20446;-73
2023/02/11 04:20:52;;;;;;;1.00;1.00;;;-6.30;99.90;-6.70;98348.00;;;;5064747;28;20207;-73
2023/02/11 04:23:41;;;;;;;4.75;3.33;;;-4.50;99.90;-6.40;98341.00;;;;5068847;28;20246;-71
2023/02/11 04:26:29;;;;;;;2.45;2.25;;;-6.80;99.90;-6.60;98322.00;;;;5068060;28;20577;-73
2023/02/11 04:29:18;;;;;;;5.28;2.90;;;-6.70;99.90;-6.20;98332.00;;;;5065993;28;20219;-71
2023/02/11 04:32:09;;;;;;;2.95;2.67;;;-6.20;99.90;-6.10;98326.00;;;;5065876;28;20227;-73
2023/02/11 04:34:58;;;;;;;1.92;1.75;;;-6.70;99.90;-6.70;98314.00;;;;5076204;28;20207;-72
2023/02/11 04:37:47;;;;;;;5.93;2.63;;;-6.50;99.90;-6.80;98327.00;;;;5069350;28;20207;-69
2023/02/11 04:40:35;;;;;;;1.48;1.40;;;-6.80;99.90;-6.40;98323.00;;;;5063187;28;20203;-73
2023/02/11 04:43:24;;;;;;;1.70;1.60;;;-6.50;99.90;-5.80;98318.00;;;;5068534;28;20314;-71
2023/02/11 04:46:13;;;;;;;5.82;4.30;;;-6.50;99.90;-6.20;98300.00;;;;5070822;28;20204;-69
2023/02/11 04:49:04;;;;;;;2.72;2.33;;;-6.40;99.90;-6.50;98300.00;;;;5068149;28;20207;-72
2023/02/11 04:51:53;;;;;;;1.70;1.58;;;-6.30;99.90;-6.50;98289.00;;;;5063891;28;20223;-71
2023/02/11 04:54:42;;;;;;;2.53;2.35;;;-6.30;99.90;-6.10;98310.00;;;;5068809;28;20211;-72
2023/02/11 04:57:30;;;;;;;4.20;2.40;;;-6.40;99.90;-6.10;98298.00;;;;5070064;28;20242;-73
2023/02/11 05:00:19;;;;;;;1.25;1.23;;;-6.10;99.90;-6.00;98297.00;;;;5069780;28;20227;-68
2023/02/11 05:03:08;;;;;;;2.38;1.67;;;-6.20;99.90;-6.00;98303.00;;;;5066042;28;21071;-72
2023/02/11 05:05:58;;;;;;;2.05;1.92;;;-6.00;99.90;-6.30;98292.00;;;;5068368;28;20315;-72
2023/02/11 05:08:47;;;;;;;3.03;2.83;;;-5.80;99.90;-6.20;98289.00;;;;5070239;28;20587;-72
2023/02/11 05:11:38;;;;;;;3.13;1.67;;;-6.10;99.90;-5.80;98295.00;;;;5068653;28;20216;-72
2023/02/11 05:14:26;;;;;;;6.38;2.20;;;-6.00;99.90;-5.70;98288.00;;;;5069805;28;20228;-74
2023/02/11 05:17:15;;;;;;;0.90;0.90;;;-6.20;99.90;-5.80;98286.00;;;;5069413;28;20242;-74
2023/02/11 05:20:05;;;;;;;2.05;1.95;;;-6.10;99.90;-5.70;98296.00;;;;5069787;28;20203;-73
2023/02/11 05:22:55;;;;;;;2.53;1.92;;;-5.90;99.90;-6.20;98283.00;;;;5068930;28;20228;-69
2023/02/11 05:25:44;;;;;;;2.45;2.03;;;-6.00;99.90;-6.20;98286.00;;;;5070315;28;20235;-68
2023/02/11 05:28:34;;;;;;;3.00;2.40;;;-6.10;99.90;-6.20;98275.00;;;;5068392;28;20609;-72
2023/02/11 05:31:22;;;;;;;3.60;2.28;;;-5.10;99.90;-5.90;98290.00;;;;5064335;28;20231;-73
2023/02/11 05:34:11;;;;;;;4.53;3.33;;;-4.40;99.90;-5.60;98291.00;;;;5068580;28;20243;-68
2023/02/11 05:37:00;;;;;;;2.97;2.72;;;-5.80;99.90;-5.00;98298.00;;;;5063242;28;20238;-70
2023/02/11 05:39:50;;;;;;;2.33;2.23;;;-5.60;99.90;-5.40;98287.00;;;;5068790;28;20212;-73
2023/02/11 05:42:39;;;;;;;5.47;4.10;;;-5.40;99.90;-6.00;98285.00;;;;5068437;28;20462;-69
2023/02/11 05:45:28;;;;;;;2.08;1.90;;;-5.50;99.90;-6.40;98283.00;;;;5069186;28;20200;-68
2023/02/11 05:48:16;;;;;;;2.90;2.67;;;-5.70;99.90;-6.10;98289.00;;;;5066212;28;20210;-73
2023/02/11 05:51:05;;;;;;;2.75;2.53;;;-6.00;99.90;-5.80;98290.00;;;;5068918;28;20470;-74
2023/02/11 05:53:55;;;;;;;2.55;2.28;;;-6.10;99.90;-5.30;98295.00;;;;5068453;28;20224;-72
2023/02/11 05:56:45;;;;;;;12.30;3.65;;;-6.20;99.90;-5.00;98300.00;;;;5068810;28;20226;-72
2023/02/11 05:59:33;;;;;;;4.53;3.60;;;-6.00;99.90;-5.50;98292.00;;;;5069359;28;20212;-70
2023/02/11 06:02:22;;;;;;;1.10;0.90;;;-4.80;99.90;-6.00;98285.00;;;;5067766;28;20766;-74
2023/02/11 06:05:11;;;;;;;4.65;3.17;;;-6.00;99.90;-5.40;98275.00;;;;5069025;28;20196;-72
2023/02/11 06:07:59;;;;;;;4.05;3.65;;;-5.90;99.90;-5.20;98281.00;;;;5068363;28;20648;-71
2023/02/11 06:10:48;;;;;;;1.88;1.75;;;-5.10;99.90;-5.30;98269.00;;;;5069013;28;20196;-70
2023/02/11 06:13:38;;;;;;;2.75;2.30;;;-5.60;99.90;-5.10;98270.00;;;;5066623;28;20611;-70
2023/02/11 06:16:27;;;;;;;5.30;2.85;;;-5.70;99.90;-4.80;98283.00;;;;5068650;28;20245;-70
2023/02/11 06:19:16;;;;;;;3.10;2.63;;;-5.50;99.90;-4.70;98278.00;;;;5067314;28;20301;-73
2023/02/11 06:22:04;;;;;;;2.50;2.30;;;-4.90;99.90;-4.80;98263.00;;;;5065924;28;20443;-71
2023/02/11 06:24:53;;;;;;;1.30;1.08;;;-5.40;99.90;-5.10;98270.00;;;;5063521;28;20450;-74
2023/02/11 06:27:48;;;;;;;0.60;0.60;;;-5.10;99.90;-5.40;98255.00;;;;5066548;28;20215;-74
2023/02/11 06:30:39;;;;;;;2.73;2.53;;;-5.60;99.90;-5.60;98263.00;;;;5056634;28;20422;-73
2023/02/11 06:33:28;;;;;;;3.67;3.40;;;-5.40;99.90;-5.10;98272.00;;;;5067943;28;20972;-73
2023/02/11 06:36:19;;;;;;;2.50;2.30;;;-5.40;99.90;-5.40;98264.00;;;;5066569;28;20483;-72
2023/02/11 06:39:08;;;;;;;2.10;2.00;;;-5.60;99.90;-5.20;98283.00;;;;5071933;28;21018;-73
2023/02/11 06:41:57;;;;;;;6.70;6.07;;;-5.70;99.90;-5.00;98284.00;;;;5063842;28;20429;-69
2023/02/11 06:44:45;;;;;;;5.30;3.67;;;-5.10;99.90;-5.00;98282.00;;;;5066651;28;20429;-74
2023/02/11 06:47:36;;;;;;;10.90;6.43;;;-5.40;99.90;-5.00;98274.00;;;;5070047;28;20723;-70
2023/02/11 06:50:24;;;;;;;16.93;8.07;;;-5.30;99.90;-4.70;98279.00;;;;5072538;28;20427;-70
2023/02/11 06:53:13;;;;;;;17.77;6.33;;;-4.80;99.90;-4.40;98283.00;;;;5069270;28;20462;-73
2023/02/11 06:56:06;;;;;;;12.63;4.50;;;-5.00;99.90;-4.50;98280.00;;;;5072721;28;20414;-72
2023/02/11 06:58:56;;;;;;;13.03;7.33;;;-4.90;99.90;-4.70;98281.00;;;;5071055;28;20423;-71
2023/02/11 07:01:45;;;;;;;13.50;7.90;;;-4.70;99.90;-4.30;98290.00;;;;5063160;28;20445;-69
2023/02/11 07:04:35;;;;;;;9.80;5.53;;;-4.80;99.90;-4.20;98293.00;;;;5072206;28;20926;-71
2023/02/11 07:07:24;;;;;;;4.67;2.73;;;-4.20;99.90;-4.40;98297.00;;;;5071772;28;20430;-71
2023/02/11 07:10:13;;;;;;;7.97;4.20;;;-4.40;99.90;-4.40;98284.00;;;;5072290;28;20969;-72
2023/02/11 07:13:01;;;;;;;3.03;2.70;;;-4.40;99.90;-4.40;98284.00;;;;5072530;28;20496;-69
2023/02/11 07:15:50;;;;;;;8.93;2.20;;;-4.30;99.90;-4.50;98285.00;;;;5059258;28;20418;-75
2023/02/11 07:18:40;;;;;;;1.53;1.07;;;-4.30;99.90;-4.30;98290.00;;;;5070485;28;20509;-74
2023/02/11 07:21:30;;;;;;;24.17;14.87;;;-4.60;99.90;-4.00;98285.00;;;;5063682;28;20434;-70
2023/02/11 07:24:19;;;;;;;9.73;6.93;;;-4.30;99.90;-3.50;98295.00;;;;5070312;28;20430;-71
2023/02/11 07:27:08;;;;;;;10.30;3.07;;;-4.20;99.90;-3.40;98295.00;;;;5071452;28;20483;-69
2023/02/11 07:29:57;;;;;;;5.43;4.63;;;-4.30;99.90;-3.00;98300.00;;;;5068266;28;20948;-70
2023/02/11 07:32:45;;;;;;;7.13;5.00;;;-4.00;99.90;-3.00;98300.00;;;;5071922;28;20477;-71
2023/02/11 07:35:34;;;;;;;4.67;2.80;;;-3.40;99.90;-3.10;98302.00;;;;5076678;28;20431;-74
2023/02/11 07:38:24;;;;;;;3.43;2.87;;;-3.80;99.90;-3.20;98283.00;;;;5070980;28;20427;-68
2023/02/11 07:41:15;;;;;;;5.57;3.13;;;-3.40;99.90;-3.30;98294.00;;;;5072155;28;20512;-69
2023/02/11 07:44:04;;;;;;;5.93;3.70;;;-4.00;99.90;-3.00;98290.00;;;;5071306;28;20466;-74
2023/02/11 07:46:53;;;;;;;5.57;2.07;;;-3.50;99.90;-2.80;98284.00;;;;5066177;28;20955;-70
2023/02/11 07:49:42;;;;;;;2.50;2.30;;;-3.30;99.90;-2.90;98283.00;;;;5076491;28;20421;-74
2023/02/11 07:52:31;;;;;;;4.07;3.67;;;-3.10;99.90;-2.80;98271.00;;;;5074582;28;20485;-70
2023/02/11 07:55:21;;;;;;;4.40;2.90;;;-3.30;99.90;-2.50;98278.00;;;;5076957;28;20838;-75
2023/02/11 07:58:09;;;;;;;5.13;3.17;;;-3.30;99.90;-2.30;98267.00;;;;5067580;28;20528;-74
2023/02/11 08:01:02;;;;;;;3.10;2.80;;;-3.30;99.90;-2.30;98270.00;;;;5071209;28;20849;-75
2023/02/11 08:03:51;;;;;;;7.60;5.97;;;-2.70;99.90;-1.70;98292.00;;;;5070913;28;20450;-74
2023/02/11 08:06:42;;;;;;;3.07;2.80;;;-3.00;99.90;-1.70;98287.00;;;;5070404;28;20504;-73
2023/02/11 08:09:31;;;;;;;3.90;3.60;;;-2.40;99.90;-1.60;98279.00;;;;5069460;28;20845;-75
2023/02/11 08:12:27;;;;;;;5.50;2.57;;;-2.60;99.90;-1.10;98300.00;;;;5069327;28;20849;-75
2023/02/11 08:15:17;;;;;;;6.20;3.60;;;-2.70;99.90;-1.00;98283.00;;;;5065975;28;20444;-76
2023/02/11 08:18:07;;;;;;;4.00;3.57;;;-2.00;99.90;-0.70;98280.00;;;;5065611;28;20441;-70
2023/02/11 08:20:56;;;;;;;10.47;5.97;;;-1.60;99.90;-0.30;98292.00;;;;5069059;28;20446;-73
2023/02/11 08:23:45;;;;;;;2.80;2.70;;;-1.20;99.90;-0.40;98283.00;;;;5067402;28;20488;-76
2023/02/11 08:26:34;;;;;;;4.10;3.63;;;-1.10;99.90;0.10;98287.00;;;;5063702;28;20422;-76
2023/02/11 08:29:25;;;;;;;7.00;4.03;;;-1.10;99.90;0.70;98284.00;;;;5066403;28;20957;-73
2023/02/11 08:32:13;;;;;;;7.20;2.73;;;-0.50;99.90;1.10;98291.00;;;;5073259;28;20474;-72
2023/02/11 08:35:02;;;;;;;4.33;3.10;;;-0.40;99.90;1.40;98290.00;;;;5070975;28;20814;-74
2023/02/11 08:37:51;;;;;;;7.10;3.23;;;0.60;99.90;1.70;98288.00;;;;5060527;28;20485;-73
2023/02/11 08:40:39;;;;;;;9.70;4.43;;;0.20;99.90;2.40;98299.00;;;;5068460;28;20427;-72
2023/02/11 08:43:28;;;;;;;6.30;4.63;;;0.90;99.90;2.10;98302.00;;;;5065794;28;20476;-74
2023/02/11 08:46:20;;;;;;;5.73;3.60;;;0.90;99.90;2.40;98309.00;;;;5068825;28;20971;-72
2023/02/11 08:49:09;;;;;;;3.93;2.90;;;1.20;99.90;2.30;98300.00;;;;5068623;28;20426;-72
2023/02/11 08:52:02;;;;;;;8.98;4.43;;;1.70;99.90;2.10;98287.00;;;;5066225;28;20893;-75
2023/02/11 08:54:51;;;;;;;3.80;3.40;;;1.40;97.50;2.70;98305.00;;;;5070363;28;20221;-73
2023/02/11 08:57:40;;;;;;;5.40;3.97;;;1.50;97.40;3.40;98300.00;;;;5077018;28;20855;-74
2023/02/11 09:00:28;;;;;;;7.70;4.17;;;1.80;97.20;3.30;98283.00;;;;5074332;28;20461;-72
2023/02/11 09:03:19;;;;;;;7.50;4.53;;;2.00;95.30;3.60;98295.00;;;;5078337;28;20446;-73
2023/02/11 09:06:10;;;;;;;4.83;3.57;;;2.20;95.30;3.80;98291.00;;;;5069352;28;20426;-72
2023/02/11 09:08:59;;;;;;;4.83;3.27;;;2.40;94.00;3.90;98286.00;;;;5069768;28;20426;-72
2023/02/11 09:11:47;;;;;;;4.67;4.00;;;2.60;93.50;4.60;98286.00;;;;5068221;28;20439;-71
2023/02/11 09:14:37;;;;;;;5.93;3.73;;;2.90;93.70;4.30;98286.00;;;;5062814;28;20422;-73
2023/02/11 09:17:25;;;;;;;5.00;3.43;;;3.00;92.20;4.70;98292.00;;;;5066712;28;20476;-73
2023/02/11 09:20:16;;;;;;;3.57;3.20;;;3.20;92.30;4.90;98296.00;;;;5069601;28;20510;-75
2023/02/11 09:23:05;;;;;;;3.50;3.20;;;3.30;92.00;4.40;98304.00;;;;5063778;28;20453;-74
2023/02/11 09:25:54;;;;;;;4.97;3.27;;;3.30;90.20;3.50;98289.00;;;;5067015;28;20434;-74
2023/02/11 09:28:42;;;;;;;5.13;3.20;;;3.10;88.10;3.60;98290.00;;;;5078562;28;20421;-74
2023/02/11 09:31:33;;;;;;;4.57;3.40;;;3.00;88.40;4.20;98299.00;;;;5079406;28;20580;-72
2023/02/11 09:34:22;;;;;;;6.53;3.57;;;3.00;88.10;4.60;98290.00;;;;5069206;28;21026;-73
2023/02/11 09:37:13;;;;;;;4.83;3.17;;;3.10;89.30;4.60;98286.00;;;;5074013;28;20419;-74
2023/02/11 09:40:02;;;;;;;5.13;3.17;;;3.10;88.70;4.50;98275.00;;;;5065811;28;21004;-72
2023/02/11 09:42:54;;;;;;;4.87;3.33;;;3.20;86.70;4.90;98288.00;;;;5067598;28;20461;-75
2023/02/11 09:45:45;;;;;;;4.43;3.10;;;3.30;86.80;4.90;98283.00;;;;5067637;28;21176;-72
2023/02/11 09:48:41;;;;;;;6.77;3.37;;;3.40;86.40;5.00;98274.00;;;;5067471;28;21793;-72
2023/02/11 09:51:39;;;;;;;2.40;2.10;;;3.60;85.50;4.30;98256.00;;;;5067996;28;20945;-76
2023/02/11 09:54:37;;;;;;;5.60;4.53;;;3.70;82.20;5.10;98257.00;;;;5068285;28;20838;-73
2023/02/11 09:57:32;;;;;;;5.43;2.83;;;3.80;83.30;4.80;98250.00;;;;5065093;28;20438;-73
2023/02/11 10:00:27;;;;;;;5.87;3.40;;;3.80;81.90;5.30;98269.00;;;;5065455;28;20195;-71
2023/02/11 10:04:02;;;;;;;6.83;4.00;;;4.00;82.10;5.70;98257.00;;;;5059925;28;20221;-70
2023/02/11 10:06:54;;;;;;;9.47;3.23;;;4.10;81.30;5.50;98254.00;;;;5004693;28;20202;-72
2023/02/11 10:10:12;;;;;;;3.80;3.07;;;4.30;79.20;5.70;98261.00;;;;5007068;28;20425;-77
2023/02/11 10:13:23;;;;;;;3.17;2.87;;;4.40;79.00;6.00;98249.00;;;;5061209;28;20227;-75
2023/02/11 10:16:30;;;;;;;4.23;3.33;;;4.50;78.40;6.40;98243.00;;;;5063166;28;20430;-75
2023/02/11 10:19:42;;;;;;;5.17;3.97;;;5.00;77.70;6.70;98248.00;;;;5066496;28;20195;-72
2023/02/11 10:22:36;;;;;;;4.63;4.03;;;4.90;77.20;6.70;98242.00;;;;5063753;28;20215;-72
2023/02/11 10:25:32;;;;;;;6.00;3.63;;;5.20;75.50;6.80;98243.00;;;;5057440;28;20293;-72
2023/02/11 10:28:23;;;;;;;4.23;3.40;;;5.30;74.30;7.30;98224.00;;;;5067718;28;20196;-73
2023/02/11 10:31:18;;;;;;;6.97;3.97;;;5.50;74.60;6.90;98227.00;;;;5065652;28;20253;-72
2023/02/11 10:34:10;;;;;;;3.17;2.60;;;5.80;73.60;7.30;98222.00;;;;5060876;28;20243;-76
2023/02/11 10:36:59;;;;;;;8.27;2.97;;;5.80;73.10;7.40;98223.00;;;;5061240;28;20208;-78
2023/02/11 10:39:48;;;;;;;6.03;3.60;;;5.90;72.10;7.50;98205.00;;;;5068727;28;20615;-71
2023/02/11 10:42:39;;;;;;;5.70;3.27;;;6.10;71.10;7.90;98218.00;;;;5065946;28;20243;-73
2023/02/11 10:45:34;;;;;;;3.90;2.83;;;6.30;71.20;7.90;98217.00;;;;5066242;28;20786;-72
2023/02/11 10:48:45;;;;;;;5.30;3.60;;;6.50;70.10;8.60;98217.00;;;;5063914;28;20204;-73
2023/02/11 10:51:34;;;;;;;3.37;2.60;;;6.60;70.50;8.60;98205.00;;;;5064914;28;20203;-71
2023/02/11 10:54:23;;;;;;;3.53;3.07;;;7.00;67.50;8.20;98214.00;;;;5068076;28;20266;-68
2023/02/11 10:57:19;;;;;;;5.53;3.17;;;7.20;66.80;8.00;98204.00;;;;5061792;28;20199;-69
2023/02/11 11:00:35;;;;;;;3.17;2.70;;;7.30;65.80;8.90;98192.00;;;;5061323;28;20210;-76
2023/02/11 11:03:26;;;;;;;6.43;3.97;;;7.50;65.10;8.50;98193.00;;;;5062786;28;20624;-71
2023/02/11 11:06:17;;;;;;;3.30;2.57;;;7.60;63.60;8.50;98192.00;;;;5058431;28;20203;-71
2023/02/11 11:09:05;;;;;;;3.70;2.80;;;7.80;61.50;7.30;98186.00;;;;5061857;28;20584;-70
2023/02/11 11:11:54;;;;;;;4.73;3.00;;;7.30;68.80;8.00;98196.00;;;;5064261;28;20203;-74
2023/02/11 11:14:55;;;;;;;5.33;3.37;;;7.40;61.70;7.70;98201.00;;;;5060623;28;20220;-74
2023/02/11 11:17:45;;;;;;;5.97;4.03;;;7.20;61.70;7.10;98194.00;;;;5067397;28;20207;-76
2023/02/11 11:20:35;;;;;;;4.37;3.57;;;6.90;61.60;7.50;98173.00;;;;5062850;28;20204;-69
2023/02/11 11:23:24;;;;;;;7.40;3.13;;;6.60;63.60;7.30;98168.00;;;;5062915;28;20238;-71
2023/02/11 11:26:15;;;;;;;5.87;3.50;;;6.50;62.80;8.30;98152.00;;;;5062346;28;20211;-69
2023/02/11 11:29:13;;;;;;;4.00;3.60;;;6.70;63.50;8.00;98152.00;;;;5060683;28;20212;-74
2023/02/11 11:32:06;;;;;;;3.77;3.10;;;7.30;68.20;9.10;98151.00;;;;5059137;28;20671;-71
2023/02/11 11:35:02;;;;;;;6.10;3.33;;;7.50;61.70;9.90;98179.00;;;;5065148;28;20232;-70
2023/02/11 11:37:55;;;;;;;5.03;3.57;;;8.00;61.30;10.90;98158.00;;;;5063187;28;20225;-69
2023/02/11 11:41:23;;;;;;;4.60;3.27;;;8.70;60.90;11.70;98149.00;;;;5068235;28;20674;-70
2023/02/11 11:44:26;;;;;;;5.50;3.27;;;9.40;59.30;13.00;98156.00;;;;5068650;28;20221;-70
2023/02/11 11:47:26;;;;;;;3.77;2.93;;;10.30;58.70;12.00;98144.00;;;;5065963;28;20199;-71
2023/02/11 11:50:27;;;;;;;4.17;2.70;;;10.90;55.00;11.70;98143.00;;;;5068364;28;20321;-73
2023/02/11 11:53:23;;;;;;;6.63;3.00;;;11.00;54.30;12.30;98145.00;;;;5068254;28;20375;-72
2023/02/11 11:56:16;;;;;;;6.00;3.07;;;11.00;54.40;12.30;98136.00;;;;5055738;28;20208;-73
2023/02/11 11:59:12;;;;;;;3.03;2.67;;;11.20;53.50;12.30;98134.00;;;;5064861;28;20582;-70
2023/02/11 12:02:55;;;;;;;5.23;3.30;;;11.20;52.60;13.10;98124.00;;;;5069957;28;20206;-70
2023/02/11 12:05:58;;;;;;;6.20;3.10;;;11.40;52.30;13.60;98129.00;;;;5035473;28;20229;-69
2023/02/11 12:09:01;;;;;;;6.80;2.60;;;11.50;53.10;14.30;98110.00;;;;5072899;28;20195;-69
2023/02/11 12:12:32;;;;;;;7.57;3.30;;;12.00;53.20;15.30;98124.00;;;;5062158;28;20234;-69
2023/02/11 12:15:32;;;;;;;4.27;3.60;;;12.60;52.10;14.40;98136.00;;;;5066566;28;20236;-70
2023/02/11 12:19:09;;;;;;;4.93;3.35;;;13.10;50.50;13.70;98135.00;;;;5060903;28;20706;-69
2023/02/11 12:22:10;;;;;;;4.30;3.20;;;13.00;49.80;13.20;98126.00;;;;5069303;28;20199;-71
2023/02/11 12:25:26;;;;;;;6.57;3.60;;;12.20;51.40;13.30;98082.00;;;;5065096;28;20936;-68
2023/02/11 12:28:27;;;;;;;5.32;3.30;;;12.10;50.50;15.10;98077.00;;;;5062350;28;20935;-69
2023/02/11 12:31:34;;;;;;;6.65;4.60;;;12.30;51.70;15.90;98081.00;;;;5065448;28;20404;-69
2023/02/11 12:35:02;;;;;;;7.78;5.40;;;13.10;51.00;16.30;98076.00;;;;5063759;28;21370;-69
2023/02/11 12:38:17;;;;;;;5.53;3.92;;;13.80;49.80;16.20;98073.00;;;;5065855;28;20406;-69
2023/02/11 12:44:40;;;;;;;4.13;3.07;;;14.70;48.10;17.00;98050.00;;;;5065683;28;20359;-69
2023/02/11 12:47:39;;;;;;;5.40;3.90;;;15.10;47.30;17.10;98051.00;;;;5059422;28;20893;-70
2023/02/11 12:50:36;;;;;;;5.67;4.47;;;15.40;46.20;16.00;98039.00;;;;5065128;28;20639;-72
2023/02/11 12:53:51;;;;;;;4.83;3.50;;;15.30;45.70;17.20;98029.00;;;;5062408;28;20232;-71
2023/02/11 12:56:48;;;;;;;3.07;2.60;;;15.50;46.10;18.30;98032.00;;;;5060571;28;20208;-69
2023/02/11 12:59:48;;;;;;;5.60;3.23;;;15.90;46.30;18.80;98029.00;;;;5063538;28;20200;-70
2023/02/11 13:02:47;;;;;;;4.23;3.10;;;16.50;45.70;18.50;98025.00;;;;5069990;28;20226;-72